Latest Coastal Weather Observations for Willis Island

IDQ60701

Issued at 6:12 pm EST Saturday 20 April 2024 (issued every 10 minutes, with the page automatically refreshed every 10 minutes)

About coastal observations | Map of coastal stations | Coastal observations for QLD | Marine services | Other Formats
Station Details ID: 200283 Name: WILLIS ISLAND Lat: -16.29 Lon: 149.97 Height: 9.29 m
Data from the previous 72 hours. | See also: Recent months at Willis Island
Date/Time
EST
Wind Sea
Height
m
Swell Vis
km
Cloud Weather Temp
°C
Press
MSL
hPa
Rain since
9am
mm
Dir  Spd
kts
Gust
kts
Height
m
Period
s
Dir
20/06:00pm SSE 12 15 - - - - - - - 27.3 1009.4 0.2
20/05:30pm SSE 12 14 - - - - - - - 27.4 1009.1 0.2
20/05:00pm SSE 12 14 - - - - - - - 27.8 1008.9 0.2
20/04:30pm SSE 11 13 - - - - - - - 28.0 1008.5 0.2
20/04:00pm SE 11 13 - - - - - - - 27.8 1008.2 0.2
20/03:30pm SE 13 15 - - - - - - - 28.5 1007.8 0.2
20/03:00pm SE 14 15 - - - - - - - 29.0 1007.8 0.2
20/02:30pm SE 12 14 - - - - - - - 29.6 1008.1 0.2
20/02:00pm SE 12 14 - - - - - - - 29.1 1008.4 0.2
20/01:30pm ESE 11 13 - - - - - - - 28.9 1008.9 0.2
20/01:00pm ESE 9 11 - - - - - - - 28.8 1009.7 0.2
20/12:30pm SE 10 12 - - - - - - - 28.3 1010.2 0.2
20/12:00pm SE 13 14 - - - - - - - 28.4 1010.3 0.0
20/11:30am SE 13 14 - - - - - - - 28.7 1010.7 0.0
20/11:00am SE 13 14 - - - - - - - 29.3 1011.2 0.0
20/10:30am SE 13 16 - - - - - - - 29.1 1011.5 0.0
20/10:00am ESE 14 17 - - - - - - - 28.6 1011.6 0.0
20/09:30am SE 12 14 - - - - - - - 28.3 1012.1 0.0
20/09:00am SE 12 14 - - - - - - - 28.3 1012.0 0.0
20/08:30am SE 13 15 - - - - - - - 28.1 1011.8 0.0
20/08:00am SE 12 14 - - - - - - - 27.8 1011.9 0.0
20/07:30am SE 13 15 - - - - - - - 27.5 1011.7 0.0
20/07:00am SE 16 18 - - - - - - - 27.3 1010.9 0.0
20/06:30am SE 17 19 - - - - - - - 27.2 1010.0 0.0
20/06:00am SE 17 19 - - - - - - - 27.1 1009.4 0.0
20/05:30am SE 15 17 - - - - - - - 27.0 1009.6 0.0
20/05:00am SE 13 16 - - - - - - - 27.0 1009.7 0.0
20/04:30am SE 14 16 - - - - - - - 27.0 1009.7 0.0
20/04:00am SE 14 16 - - - - - - - 27.1 1009.9 0.0
20/03:30am SE 14 17 - - - - - - - 27.1 1009.8 0.0
20/03:00am SE 16 18 - - - - - - - 27.1 1009.6 0.0
20/02:30am ESE 17 21 - - - - - - - 27.1 1009.6 0.0
20/02:00am ESE 19 22 - - - - - - - 27.2 1009.3 0.0
20/01:30am SE 20 22 - - - - - - - 27.2 1009.6 0.0
20/01:00am SE 19 22 - - - - - - - 27.2 1009.9 0.0
20/12:30am ESE 20 23 - - - - - - - 27.3 1010.3 0.0
20/12:00am SE 20 23 - - - - - - - 27.3 1010.7 0.0
 
Date/Time
EST
Wind Sea
Height
m
Swell Vis
km
Cloud Weather Temp
°C
Press
MSL
hPa
Rain since
9am
mm
Dir  Spd
kts
Gust
kts
Height
m
Period
s
Dir
19/11:30pm SE 21 24 - - - - - - - 27.3 1011.0 0.0
19/11:00pm SE 21 24 - - - - - - - 27.3 1011.2 0.0
19/10:30pm SE 20 23 - - - - - - - 27.3 1011.4 0.0
19/10:00pm SE 21 25 - - - - - - - 27.4 1011.2 0.0
19/09:30pm SE 21 23 - - - - - - - 27.3 1011.4 0.0
19/09:00pm SE 20 23 - - - - - - - 27.2 1011.4 0.0
19/08:30pm SE 20 23 - - - - - - - 27.3 1011.5 0.0
19/08:00pm SE 19 22 - - - - - - - 27.4 1011.3 0.0
19/07:30pm SE 19 22 - - - - - - - 27.2 1010.9 0.0
19/07:00pm SE 19 21 - - - - - - - 27.4 1010.5 0.0
19/06:30pm SE 18 21 - - - - - - - 27.4 1010.2 0.0
19/06:00pm SE 19 21 - - - - - - - 27.5 1009.8 0.0
19/05:30pm SE 19 22 - - - - - - - 27.4 1009.5 0.0
19/05:00pm SE 17 20 - - - - - - - 27.6 1009.3 0.0
19/04:30pm SE 16 19 - - - - - - - 27.7 1009.1 0.0
19/04:00pm SE 16 19 - - - - - - - 28.0 1008.8 0.0
19/03:30pm SE 16 18 - - - - - - - 28.1 1008.6 0.0
19/03:00pm SE 15 18 - - - - - - - 28.4 1008.4 0.0
19/02:30pm SE 16 18 - - - - - - - 28.2 1008.4 0.0
19/02:00pm SE 16 18 - - - - - - - 28.4 1008.6 0.0
19/01:30pm SE 15 17 - - - - - - - 28.5 1008.8 0.0
19/01:00pm ESE 16 19 - - - - - - - 28.6 1008.9 0.0
19/12:30pm ESE 17 19 - - - - - - - 28.8 1009.1 0.0
19/12:00pm SE 17 20 - - - - - - - 28.7 1009.4 0.0
19/11:30am ESE 18 20 - - - - - - - 28.9 1009.9 0.0
19/11:00am ESE 17 20 - - - - - - - 28.6 1010.4 0.0
19/10:30am ESE 17 20 - - - - - - - 28.2 1011.0 0.0
19/10:00am ESE 17 19 - - - - - - - 28.2 1011.6 0.0
19/09:30am ESE 15 18 - - - - - - - 28.4 1012.1 0.0
19/09:00am SE 16 19 - - - - - - - 27.9 1011.9 2.4
19/08:30am ESE 15 18 - - - - - - - 28.0 1011.7 2.4
19/08:00am ESE 16 18 - - - - - - - 27.8 1011.5 2.4
19/07:30am SE 16 18 - - - - - - - 27.8 1011.1 2.4
19/07:00am SE 17 19 - - - - - - - 27.5 1010.9 2.2
19/06:30am SE 16 18 - - - - - - - 27.3 1010.5 2.2
19/06:00am SE 17 19 - - - - - - - 27.1 1010.0 2.2
19/05:30am SE 16 19 - - - - - - - 27.2 1009.7 2.2
19/05:00am SE 16 18 - - - - - - - 27.2 1009.5 2.2
19/04:30am SE 15 18 - - - - - - - 27.1 1009.3 2.2
19/04:00am SE 15 19 - - - - - - - 26.9 1009.2 2.2
19/03:30am SE 16 19 - - - - - - - 26.9 1009.2 2.2
19/03:00am SE 16 19 - - - - - - - 26.9 1009.4 2.2
19/02:30am ESE 16 18 - - - - - - - 27.0 1009.6 2.2
19/02:00am SE 16 19 - - - - - - - 27.0 1009.8 2.2
19/01:30am SE 15 18 - - - - - - - 27.3 1010.0 2.2
19/01:00am SE 16 18 - - - - - - - 27.4 1010.2 2.2
19/12:30am SE 16 19 - - - - - - - 27.4 1010.4 2.2
19/12:00am SE 17 20 - - - - - - - 27.3 1010.8 2.2
 
Date/Time
EST
Wind Sea
Height
m
Swell Vis
km
Cloud Weather Temp
°C
Press
MSL
hPa
Rain since
9am
mm
Dir  Spd
kts
Gust
kts
Height
m
Period
s
Dir
18/11:30pm SE 17 20 - - - - - - - 27.3 1010.9 2.2
18/11:00pm ESE 18 21 - - - - - - - 27.2 1011.1 2.2
18/10:30pm ESE 19 21 - - - - - - - 27.1 1011.2 2.2
18/10:00pm ESE 19 21 - - - - - - - 27.3 1011.4 2.2
18/09:30pm ESE 18 21 - - - - - - - 27.3 1011.6 2.2
18/09:00pm ESE 18 21 - - - - - - - 27.3 1011.6 2.2
18/08:30pm ESE 18 21 - - - - - - - 27.2 1011.7 2.2
18/08:00pm ESE 20 23 - - - - - - - 27.1 1011.5 2.2
18/07:30pm ESE 21 24 - - - - - - - 27.1 1011.4 2.2
18/07:00pm ESE 21 24 - - - - - - - 26.9 1011.0 2.0
18/06:30pm ESE 21 25 - - - - - - - 26.9 1010.8 2.0
18/06:00pm ESE 21 25 - - - - - - Recent precip. 26.8 1010.7 2.0
18/05:30pm ESE 20 23 - - - - - - - 26.6 1010.6 2.0
18/05:00pm ESE 20 23 - - - - - - - 26.7 1010.1 1.6
18/04:30pm ESE 21 25 - - - - - - - 26.7 1010.2 1.0
18/04:00pm ESE 21 25 - - - - - - - 27.3 1009.7 0.0
18/03:30pm ESE 23 26 - - - - - - - 28.0 1009.4 0.0
18/03:00pm ESE 23 26 - - - - - - - 27.9 1009.4 0.0
18/02:30pm ESE 23 27 - - - - - - - 28.7 1009.5 0.0
18/02:00pm ESE 23 27 - - - - - - - 29.1 1009.5 0.0
18/01:30pm ESE 22 26 - - - - - - - 29.1 1009.7 0.0
18/01:00pm ESE 22 26 - - - - - - - 29.3 1010.0 0.0
18/12:30pm ESE 22 26 - - - - - - - 29.1 1010.3 0.0
18/12:00pm ESE 24 27 - - - - - - - 28.9 1010.9 0.0
18/11:30am ESE 22 25 - - - - - - - 29.1 1011.3 0.0
18/11:00am ESE 25 29 - - - - - - - 29.4 1011.7 0.0
18/10:30am ESE 24 28 - - - - - - - 28.7 1011.9 0.0
18/10:00am ESE 22 26 - - - - - - - 28.4 1012.2 0.0
18/09:30am ESE 22 27 - - - - - - - 28.6 1012.1 0.0
18/09:00am ESE 23 28 - - - - - - - 28.1 1012.0 8.4
18/08:30am ESE 23 27 - - - - - - - 28.1 1011.7 8.4
18/08:00am ESE 24 27 - - - - - - - 27.9 1011.3 8.4
18/07:30am ESE 24 27 - - - - - - - 27.7 1011.1 8.4
18/07:00am ESE 21 25 - - - - - - - 27.2 1010.7 8.4
18/06:30am SE 21 24 - - - - - - - 27.0 1010.5 8.2
18/06:00am SE 19 24 - - - - - - Recent precip. 26.6 1010.4 8.2
18/05:30am SSE 19 22 - - - - - - - 26.6 1010.2 8.0
18/05:00am SE 19 21 - - - - - - - 26.4 1010.3 7.8
18/04:30am SE 19 22 - - - - - - - 26.0 1010.5 7.0
18/04:00am ESE 20 23 - - - - - - - 26.1 1010.4 6.0
18/03:30am ESE 24 30 - - - - - - - 26.1 1010.2 4.2
18/03:23am ESE 15 30 - - - - - - - 26.2 1010.5 3.6
18/03:00am ESE 21 26 - - - - - - Recent precip. 26.1 1010.7 2.2
18/02:30am SE 22 30 - - - - - - - 25.5 1011.0 1.0
18/02:27am SE 20 30 - - - - - - - 25.9 1010.9 0.4
18/02:00am SE 15 19 - - - - - - - 26.8 1010.9 0.4
18/01:30am SE 18 21 - - - - - - - 26.2 1011.4 0.4
18/01:00am ESE 20 27 - - - - - - - 26.1 1011.4 0.4
18/12:30am SE 21 25 - - - - - - - 27.3 1011.9 0.0
18/12:00am SE 19 22 - - - - - - - 27.4 1012.2 0.0
 
Date/Time
EST
Wind Sea
Height
m
Swell Vis
km
Cloud Weather Temp
°C
Press
MSL
hPa
Rain since
9am
mm
Dir  Spd
kts
Gust
kts
Height
m
Period
s
Dir
17/11:30pm SE 20 24 - - - - - - - 27.3 1012.7 0.0
17/11:00pm SE 21 24 - - - - - - - 27.5 1012.9 0.0
17/10:30pm SE 20 23 - - - - - - - 27.3 1013.1 0.0
17/10:00pm SE 19 23 - - - - - - - 27.3 1013.4 0.0
17/09:30pm SE 20 24 - - - - - - - 27.5 1013.7 0.0
17/09:00pm SE 20 23 - - - - - - - 27.4 1013.9 0.0
17/08:30pm SE 19 22 - - - - - - - 27.3 1013.7 0.0
17/08:00pm SE 20 24 - - - - - - - 27.5 1013.3 0.0
17/07:30pm SE 19 22 - - - - - - - 27.4 1012.9 0.0
17/07:00pm SE 18 21 - - - - - - - 27.4 1012.6 0.0
17/06:30pm ESE 20 24 - - - - - - - 27.4 1012.4 0.0

Other formats

Comma delimited format used in spreadsheet applications
http://www.bom.gov.au/fwo/IDQ60701/IDQ60701.94299.axf

JavaScript Object Notation format (JSON) in row-major order
http://www.bom.gov.au/fwo/IDQ60701/IDQ60701.94299.json

Data quality

Most of these data are generated automatically and are frequently updated. Quality checks on data are not normally performed. It is possible for incorrect values to appear. Refer to information at About Latest Weather Observations and please check the disclaimer before using these data.